createdAt,value
2023-04-03T00:03:39.273Z,84.60
2023-04-03T00:07:21.321Z,84.80
2023-04-03T00:11:04.047Z,85.00
2023-04-03T00:14:45.916Z,85.10
2023-04-03T00:18:27.713Z,85.00
2023-04-03T00:22:09.490Z,85.30
2023-04-03T00:25:54.215Z,85.40
2023-04-03T00:29:35.984Z,85.50
2023-04-03T00:33:18.026Z,85.50
2023-04-03T00:36:59.900Z,85.60
2023-04-03T00:40:44.697Z,85.70
2023-04-03T00:44:29.437Z,86.40
2023-04-03T00:48:15.842Z,85.90
2023-04-03T00:51:59.674Z,86.00
2023-04-03T00:55:43.866Z,86.20
2023-04-03T00:59:31.676Z,86.30
2023-04-03T01:03:13.544Z,86.40
2023-04-03T01:06:58.984Z,86.50
2023-04-03T01:10:40.956Z,86.60
2023-04-03T01:14:22.709Z,86.60
2023-04-03T01:18:05.824Z,86.90
2023-04-03T01:22:20.775Z,86.90
2023-04-03T01:26:03.728Z,86.70
2023-04-03T01:29:46.345Z,86.80
2023-04-03T01:33:28.235Z,86.90
2023-04-03T01:37:10.057Z,86.90
2023-04-03T01:40:51.775Z,87.10
2023-04-03T01:44:33.538Z,87.10
2023-04-03T01:48:15.312Z,87.30
2023-04-03T01:51:57.079Z,88.00
2023-04-03T01:55:38.820Z,87.50
2023-04-03T01:59:20.707Z,87.50
2023-04-03T02:03:02.742Z,87.50
2023-04-03T02:06:44.509Z,87.60
2023-04-03T02:10:26.474Z,87.70
2023-04-03T02:14:08.304Z,87.80
2023-04-03T02:17:50.333Z,87.90
2023-04-03T02:21:32.105Z,88.00
2023-04-03T02:25:13.895Z,88.10
2023-04-03T02:28:55.717Z,88.10
2023-04-03T02:32:37.510Z,88.20
2023-04-03T02:36:19.339Z,88.30
2023-04-03T02:40:01.127Z,88.40
2023-04-03T02:43:42.895Z,88.50
2023-04-03T02:47:24.815Z,88.50
2023-04-03T02:51:06.922Z,88.60
2023-04-03T02:54:48.977Z,88.60
2023-04-03T02:58:30.818Z,88.60
2023-04-03T03:02:12.634Z,88.70
2023-04-03T03:06:12.676Z,88.90
2023-04-03T03:09:54.452Z,88.80
2023-04-03T03:13:36.852Z,89.10
2023-04-03T03:17:19.054Z,89.10
2023-04-03T03:21:03.310Z,89.10
2023-04-03T03:24:45.275Z,89.10
2023-04-03T03:28:27.722Z,89.20
2023-04-03T03:32:09.967Z,89.20
2023-04-03T03:35:52.624Z,89.20
2023-04-03T03:39:34.427Z,89.30
2023-04-03T03:43:16.693Z,89.40
2023-04-03T03:46:58.504Z,89.60
2023-04-03T03:50:40.379Z,89.60
2023-04-03T03:54:22.130Z,89.60
2023-04-03T03:58:04.545Z,89.70
2023-04-03T04:01:46.311Z,89.80
2023-04-03T04:05:28.151Z,90.00
2023-04-03T04:09:10.631Z,90.00
2023-04-03T04:12:52.592Z,90.10
2023-04-03T04:16:34.510Z,90.10
2023-04-03T04:20:16.554Z,90.10
2023-04-03T04:23:58.564Z,90.20
2023-04-03T04:27:40.523Z,90.20
2023-04-03T04:31:22.304Z,90.20
2023-04-03T04:35:05.090Z,90.20
2023-04-03T04:38:47.410Z,90.30
2023-04-03T04:42:29.253Z,90.30
2023-04-03T04:46:14.811Z,90.30
2023-04-03T04:49:56.686Z,90.30
2023-04-03T04:53:38.832Z,90.30
2023-04-03T04:57:21.022Z,90.30
2023-04-03T05:01:08.248Z,90.30
2023-04-03T05:04:51.382Z,90.30
2023-04-03T05:08:33.608Z,90.40
2023-04-03T05:12:15.590Z,90.50
2023-04-03T05:15:57.394Z,90.50
2023-04-03T05:19:39.149Z,90.50
2023-04-03T05:23:20.885Z,90.50
2023-04-03T05:27:03.391Z,90.60
2023-04-03T05:30:45.125Z,90.60
2023-04-03T05:34:26.980Z,90.60
2023-04-03T05:38:09.134Z,90.60
2023-04-03T05:41:51.082Z,90.60
2023-04-03T05:45:33.129Z,90.70
2023-04-03T05:49:15.000Z,90.70
2023-04-03T05:52:59.705Z,90.70
2023-04-03T05:56:41.521Z,90.80
2023-04-03T06:00:23.679Z,90.80
2023-04-03T06:04:05.790Z,91.10
2023-04-03T06:07:47.676Z,90.90
2023-04-03T06:11:29.650Z,90.90
2023-04-03T06:15:12.749Z,91.00
2023-04-03T06:18:54.506Z,91.00
2023-04-03T06:22:36.935Z,91.10
2023-04-03T06:26:18.985Z,91.10
2023-04-03T06:30:01.052Z,91.20
2023-04-03T06:33:43.074Z,91.30
2023-04-03T06:37:27.176Z,91.40
2023-04-03T06:41:08.968Z,91.50
2023-04-03T06:44:51.084Z,91.80
2023-04-03T06:48:32.880Z,91.70
2023-04-03T06:52:14.692Z,91.80
2023-04-03T06:55:56.633Z,91.90
2023-04-03T06:59:38.433Z,92.00
2023-04-03T07:03:20.189Z,92.10
2023-04-03T07:07:02.249Z,92.30
2023-04-03T07:10:44.079Z,92.50
2023-04-03T07:14:26.021Z,92.70
2023-04-03T07:18:08.297Z,93.10
2023-04-03T07:21:50.102Z,93.40
2023-04-03T07:25:32.771Z,93.60
2023-04-03T07:29:15.072Z,93.50
2023-04-03T07:32:57.126Z,93.60
2023-04-03T07:36:42.275Z,93.60
2023-04-03T07:40:24.113Z,93.60
2023-04-03T07:44:06.542Z,93.60
2023-04-03T07:47:49.316Z,93.50
2023-04-03T07:51:31.848Z,93.30
2023-04-03T07:55:13.948Z,93.00
2023-04-03T07:58:56.199Z,92.80
2023-04-03T08:02:38.085Z,92.30
2023-04-03T08:06:23.842Z,91.70
2023-04-03T08:10:11.533Z,91.30
2023-04-03T08:13:53.712Z,91.20
2023-04-03T08:17:36.132Z,91.10
2023-04-03T08:21:17.995Z,90.90
2023-04-03T08:24:59.968Z,90.50
2023-04-03T08:28:42.338Z,90.20
2023-04-03T08:32:24.434Z,89.50
2023-04-03T08:36:08.710Z,87.40
2023-04-03T08:39:51.100Z,86.20
2023-04-03T08:43:49.644Z,85.20
2023-04-03T08:47:47.089Z,83.80
2023-04-03T08:51:29.614Z,82.80
2023-04-03T08:55:20.707Z,80.60
2023-04-03T08:59:16.671Z,80.00
2023-04-03T09:02:58.516Z,80.10
2023-04-03T09:06:40.734Z,80.50
2023-04-03T09:10:29.068Z,80.70
2023-04-03T09:14:45.612Z,80.50
2023-04-03T09:18:37.109Z,81.40
2023-04-03T09:22:25.783Z,80.70
2023-04-03T09:26:15.475Z,79.70
2023-04-03T09:29:59.037Z,78.00
2023-04-03T09:33:41.937Z,76.40
2023-04-03T09:37:44.353Z,74.60
2023-04-03T09:41:26.104Z,74.10
2023-04-03T09:45:25.768Z,71.40
2023-04-03T09:49:12.661Z,71.60
2023-04-03T09:52:54.422Z,69.30
2023-04-03T09:56:36.336Z,70.40
2023-04-03T10:00:22.950Z,67.40
2023-04-03T10:04:11.828Z,65.20
2023-04-03T10:08:08.821Z,64.30
2023-04-03T10:12:13.215Z,64.10
2023-04-03T10:16:01.267Z,65.10
2023-04-03T10:19:46.119Z,60.40
2023-04-03T10:23:48.919Z,59.30
2023-04-03T10:28:01.127Z,61.80
2023-04-03T10:32:21.046Z,58.50
2023-04-03T10:36:14.289Z,59.40
2023-04-03T10:40:06.144Z,53.10
2023-04-03T10:43:50.644Z,52.20
2023-04-03T10:47:52.290Z,50.20
2023-04-03T10:52:02.350Z,52.60
2023-04-03T10:56:01.898Z,54.00
2023-04-03T10:59:58.484Z,55.70
2023-04-03T11:03:44.388Z,53.20
2023-04-03T11:07:32.681Z,49.80
2023-04-03T11:11:18.715Z,48.40
2023-04-03T11:15:02.817Z,47.10
2023-04-03T11:19:11.533Z,48.00
2023-04-03T11:22:59.792Z,47.60
2023-04-03T11:26:43.365Z,45.00
2023-04-03T11:30:42.951Z,42.80
2023-04-03T11:34:49.035Z,48.90
2023-04-03T11:38:40.522Z,49.60
2023-04-03T11:42:38.291Z,45.40
2023-04-03T11:46:20.952Z,48.10
2023-04-03T11:50:06.288Z,41.70
2023-04-03T11:53:48.464Z,41.30
2023-04-03T11:57:48.315Z,38.80
2023-04-03T12:01:54.786Z,44.50
2023-04-03T12:05:37.216Z,44.50
2023-04-03T12:09:31.793Z,37.50
2023-04-03T12:13:17.633Z,38.80
2023-04-03T12:17:00.808Z,40.10
2023-04-03T12:20:56.035Z,51.70
2023-04-03T12:24:43.677Z,40.30
2023-04-03T12:28:25.801Z,35.40
2023-04-03T12:32:08.305Z,35.60
2023-04-03T12:36:09.540Z,37.30
2023-04-03T12:39:58.945Z,40.20
2023-04-03T12:44:01.551Z,36.50
2023-04-03T12:47:44.631Z,39.60
2023-04-03T12:51:42.656Z,35.40
2023-04-03T12:55:24.964Z,38.40
2023-04-03T12:59:27.314Z,34.40
2023-04-03T13:03:27.826Z,39.70
2023-04-03T13:07:26.597Z,37.90
2023-04-03T13:11:12.969Z,36.30
2023-04-03T13:14:57.775Z,35.00
2023-04-03T13:18:39.675Z,34.10
2023-04-03T13:22:40.294Z,34.20
2023-04-03T13:26:25.164Z,36.80
2023-04-03T13:30:08.240Z,34.20
2023-04-03T13:34:12.931Z,34.50
2023-04-03T13:37:57.233Z,35.80
2023-04-03T13:41:42.097Z,33.70
2023-04-03T13:45:31.797Z,34.00
2023-04-03T13:49:44.076Z,33.50
2023-04-03T13:53:26.836Z,39.60
2023-04-03T13:57:16.080Z,34.00
2023-04-03T14:01:17.936Z,35.10
2023-04-03T14:05:02.829Z,33.40
2023-04-03T14:08:46.441Z,32.20
2023-04-03T14:12:31.895Z,32.90
2023-04-03T14:16:21.037Z,33.00
2023-04-03T14:20:03.642Z,33.50
2023-04-03T14:23:46.741Z,32.90
2023-04-03T14:27:31.322Z,31.70
2023-04-03T14:31:13.975Z,31.50
2023-04-03T14:34:56.683Z,32.20
2023-04-03T14:38:38.465Z,31.80
2023-04-03T14:42:24.667Z,32.30
2023-04-03T14:46:11.476Z,32.20
2023-04-03T14:49:53.518Z,32.40
2023-04-03T14:53:39.178Z,32.40
2023-04-03T14:57:25.076Z,32.40
2023-04-03T15:01:07.575Z,32.50
2023-04-03T15:04:51.320Z,32.80
2023-04-03T15:08:34.137Z,33.90
2023-04-03T15:12:16.226Z,33.10
2023-04-03T15:15:58.804Z,33.50
2023-04-03T15:19:41.313Z,34.60
2023-04-03T15:23:27.064Z,34.70
2023-04-03T15:27:09.371Z,35.10
2023-04-03T15:30:51.958Z,35.60
2023-04-03T15:34:33.758Z,36.80
2023-04-03T15:38:15.874Z,35.90
2023-04-03T15:42:00.792Z,36.70
2023-04-03T15:45:43.351Z,37.50
2023-04-03T15:49:25.459Z,37.50
2023-04-03T15:53:07.507Z,37.70
2023-04-03T15:56:50.399Z,38.00
2023-04-03T16:00:33.530Z,39.20
2023-04-03T16:04:16.742Z,39.90
2023-04-03T16:08:01.351Z,40.90
2023-04-03T16:11:44.368Z,42.70
2023-04-03T16:15:27.502Z,44.00
2023-04-03T16:19:10.482Z,44.10
2023-04-03T16:22:52.672Z,44.70
2023-04-03T16:26:34.486Z,45.10
2023-04-03T16:30:16.349Z,45.30
2023-04-03T16:33:59.426Z,44.70
2023-04-03T16:37:41.768Z,46.60
2023-04-03T16:41:23.639Z,47.10
2023-04-03T16:45:07.104Z,46.60
2023-04-03T16:48:48.927Z,46.30
2023-04-03T16:52:30.781Z,46.40
2023-04-03T16:56:12.546Z,46.50
2023-04-03T16:59:54.738Z,47.30
2023-04-03T17:03:36.652Z,47.40
2023-04-03T17:07:20.219Z,48.70
2023-04-03T17:11:02.097Z,48.30
2023-04-03T17:14:44.547Z,48.50
2023-04-03T17:18:27.561Z,48.90
2023-04-03T17:22:10.253Z,48.50
2023-04-03T17:25:52.409Z,48.60
2023-04-03T17:29:34.347Z,48.60
2023-04-03T17:33:16.387Z,48.90
2023-04-03T17:36:58.456Z,49.50
2023-04-03T17:40:45.221Z,50.00
2023-04-03T17:44:27.580Z,50.70
2023-04-03T17:48:09.673Z,50.90
2023-04-03T17:51:54.265Z,50.80
2023-04-03T17:55:38.974Z,51.00
2023-04-03T17:59:21.062Z,51.00
2023-04-03T18:03:03.801Z,50.80
2023-04-03T18:06:51.249Z,50.70
2023-04-03T18:10:35.249Z,51.20
2023-04-03T18:14:21.606Z,51.50
2023-04-03T18:18:03.637Z,51.30
2023-04-03T18:21:48.070Z,51.50
2023-04-03T18:29:18.183Z,52.20
2023-04-03T18:33:00.243Z,52.50
2023-04-03T18:36:42.089Z,53.10
2023-04-03T18:40:24.262Z,53.60
2023-04-03T18:44:10.545Z,54.20
2023-04-03T18:47:52.627Z,54.90
2023-04-03T18:51:34.533Z,54.90
2023-04-03T18:55:20.385Z,54.70
2023-04-03T18:59:02.518Z,55.20
2023-04-03T19:02:46.014Z,56.10
2023-04-03T19:06:28.440Z,57.20
2023-04-03T19:10:17.358Z,57.60
2023-04-03T19:14:14.376Z,57.10
2023-04-03T19:17:58.014Z,57.20
2023-04-03T19:21:42.587Z,57.50
2023-04-03T19:25:24.636Z,57.80
2023-04-03T19:29:06.456Z,57.60
2023-04-03T19:32:48.300Z,57.70
2023-04-03T19:36:31.369Z,58.30
2023-04-03T19:40:13.695Z,58.90
2023-04-03T19:43:56.659Z,59.10
2023-04-03T19:47:38.859Z,59.40
2023-04-03T19:51:20.886Z,59.60
2023-04-03T19:55:02.731Z,59.90
2023-04-03T19:58:45.766Z,60.10
2023-04-03T20:02:27.827Z,60.60
2023-04-03T20:06:09.799Z,60.80
2023-04-03T20:09:51.593Z,61.40
2023-04-03T20:13:33.501Z,61.10
2023-04-03T20:17:15.895Z,62.00
2023-04-03T20:21:00.490Z,62.20
2023-04-03T20:24:42.831Z,61.70
2023-04-03T20:28:25.417Z,61.20
2023-04-03T20:32:07.478Z,59.90
2023-04-03T20:35:49.893Z,60.00
2023-04-03T20:39:32.369Z,59.10
2023-04-03T20:43:14.549Z,58.90
2023-04-03T20:46:56.681Z,59.80
2023-04-03T20:50:38.884Z,60.30
2023-04-03T20:54:20.980Z,60.40
2023-04-03T20:58:03.616Z,60.50
2023-04-03T21:01:46.922Z,61.00
2023-04-03T21:05:30.384Z,60.10
2023-04-03T21:09:50.300Z,60.20
2023-04-03T21:14:09.664Z,60.80
2023-04-03T21:18:02.428Z,61.60
2023-04-03T21:21:45.876Z,61.80
2023-04-03T21:25:28.085Z,62.20
2023-04-03T21:29:11.015Z,62.50
2023-04-03T21:32:52.829Z,62.80
2023-04-03T21:36:41.306Z,62.60
2023-04-03T21:40:23.065Z,62.80
2023-04-03T21:44:05.573Z,63.00
2023-04-03T21:47:47.616Z,62.70
2023-04-03T21:51:29.601Z,63.00
2023-04-03T21:55:11.534Z,63.00
2023-04-03T21:58:53.584Z,62.80
2023-04-03T22:02:39.615Z,63.00
2023-04-03T22:06:24.813Z,62.90
2023-04-03T22:10:07.340Z,62.80
2023-04-03T22:13:52.105Z,63.00
2023-04-03T22:17:33.946Z,63.00
2023-04-03T22:21:15.766Z,63.30
2023-04-03T22:24:57.550Z,63.40
2023-04-03T22:28:46.889Z,63.50
2023-04-03T22:32:28.671Z,63.50
2023-04-03T22:36:12.173Z,63.50
2023-04-03T22:39:54.007Z,64.00
2023-04-03T22:43:37.870Z,64.00
2023-04-03T22:47:19.787Z,64.40
2023-04-03T22:51:06.883Z,64.40
2023-04-03T22:54:48.646Z,64.40
2023-04-03T22:58:30.639Z,64.50
2023-04-03T23:02:12.867Z,64.80
2023-04-03T23:05:56.229Z,64.90
2023-04-03T23:09:37.999Z,64.80
2023-04-03T23:13:20.027Z,65.10
2023-04-03T23:17:05.631Z,65.40
2023-04-03T23:20:48.289Z,65.60
2023-04-03T23:24:30.044Z,65.80
2023-04-03T23:28:11.938Z,65.90
2023-04-03T23:31:53.727Z,66.30
2023-04-03T23:35:35.534Z,66.40
2023-04-03T23:39:19.844Z,66.30
2023-04-03T23:43:01.610Z,66.60
2023-04-03T23:46:43.489Z,66.70
2023-04-03T23:50:25.627Z,66.90
2023-04-03T23:54:07.509Z,67.30
2023-04-03T23:57:49.602Z,67.50
